createdAt,value
2023-05-18T00:00:00.038Z,1019.7
2023-05-18T00:01:16.289Z,1019.7
2023-05-18T00:02:32.531Z,1019.7
2023-05-18T00:03:47.849Z,1019.7
2023-05-18T00:05:04.099Z,1019.7
2023-05-18T00:06:20.349Z,1019.7
2023-05-18T00:07:36.598Z,1019.7
2023-05-18T00:08:52.851Z,1019.7
2023-05-18T00:10:09.088Z,1019.7
2023-05-18T00:11:25.341Z,1019.7
2023-05-18T00:12:41.591Z,1019.7
2023-05-18T00:13:57.846Z,1019.7
2023-05-18T00:15:14.099Z,1019.7
2023-05-18T00:16:30.345Z,1019.7
2023-05-18T00:17:46.592Z,1019.7
2023-05-18T00:19:02.846Z,1019.7
2023-05-18T00:20:18.152Z,1019.7
2023-05-18T00:21:34.407Z,1019.7
2023-05-18T00:22:50.650Z,1019.7
2023-05-18T00:24:06.903Z,1019.7
2023-05-18T00:25:23.153Z,1019.7
2023-05-18T00:26:39.403Z,1019.7
2023-05-18T00:27:55.657Z,1019.7
2023-05-18T00:29:11.904Z,1019.7
2023-05-18T00:30:28.156Z,1019.7
2023-05-18T00:31:44.405Z,1019.7
2023-05-18T00:33:00.657Z,1019.7
2023-05-18T00:34:16.901Z,1019.7
2023-05-18T00:35:33.153Z,1019.7
2023-05-18T00:36:48.455Z,1019.7
2023-05-18T00:38:04.708Z,1019.7
2023-05-18T00:39:20.960Z,1019.7
2023-05-18T00:40:37.208Z,1019.8
2023-05-18T00:41:53.470Z,1019.8
2023-05-18T00:43:09.719Z,1019.7
2023-05-18T00:44:25.955Z,1019.7
2023-05-18T00:45:42.224Z,1019.7
2023-05-18T00:46:58.467Z,1019.6
2023-05-18T00:48:14.714Z,1019.7
2023-05-18T00:49:30.989Z,1019.7
2023-05-18T00:50:47.209Z,1019.7
2023-05-18T00:52:03.467Z,1019.7
2023-05-18T00:53:18.773Z,1019.7
2023-05-18T00:54:35.028Z,1019.7
2023-05-18T00:55:51.279Z,1019.6
2023-05-18T00:57:07.525Z,1019.6
2023-05-18T00:58:23.776Z,1019.7
2023-05-18T00:59:40.021Z,1019.6
2023-05-18T01:00:56.281Z,1019.7
2023-05-18T01:02:12.524Z,1019.6
2023-05-18T01:03:28.777Z,1019.7
2023-05-18T01:04:45.023Z,1019.7
2023-05-18T01:06:01.277Z,1019.6
2023-05-18T01:07:17.524Z,1019.7
2023-05-18T01:08:33.777Z,1019.7
2023-05-18T01:09:49.080Z,1019.7
2023-05-18T01:11:05.332Z,1019.7
2023-05-18T01:12:21.590Z,1019.8
2023-05-18T01:13:37.838Z,1019.7
2023-05-18T01:14:54.086Z,1019.7
2023-05-18T01:16:10.333Z,1019.7
2023-05-18T01:17:26.583Z,1019.7
2023-05-18T01:18:42.836Z,1019.7
2023-05-18T01:19:59.091Z,1019.7
2023-05-18T01:21:10.000Z,1019.7
2023-05-18T01:22:31.609Z,1019.7
2023-05-18T01:23:47.846Z,1019.7
2023-05-18T01:24:59.000Z,1019.7
2023-05-18T01:26:19.391Z,1019.7
2023-05-18T01:27:35.644Z,1019.7
2023-05-18T01:28:51.904Z,1019.7
2023-05-18T01:30:08.155Z,1019.7
2023-05-18T01:31:24.394Z,1019.7
2023-05-18T01:32:40.659Z,1019.7
2023-05-18T01:33:56.902Z,1019.7
2023-05-18T01:35:13.150Z,1019.7
2023-05-18T01:36:29.397Z,1019.7
2023-05-18T01:37:45.645Z,1019.7
2023-05-18T01:39:01.899Z,1019.7
2023-05-18T01:40:18.151Z,1019.7
2023-05-18T01:41:34.397Z,1019.7
2023-05-18T01:42:49.715Z,1019.7
2023-05-18T01:44:05.959Z,1019.7
2023-05-18T01:45:22.205Z,1019.7
2023-05-18T01:46:38.460Z,1019.7
2023-05-18T01:47:54.709Z,1019.7
2023-05-18T01:49:10.965Z,1019.7
2023-05-18T01:50:26.280Z,1019.7
2023-05-18T01:51:42.532Z,1019.7
2023-05-18T01:52:58.784Z,1019.7
2023-05-18T01:54:15.027Z,1019.7
2023-05-18T01:55:31.283Z,1019.7
2023-05-18T01:56:47.534Z,1019.7
2023-05-18T01:58:03.781Z,1019.8
2023-05-18T01:59:20.035Z,1019.7
2023-05-18T02:00:36.281Z,1019.7
2023-05-18T02:01:52.529Z,1019.6
2023-05-18T02:03:08.780Z,1019.6
2023-05-18T02:04:25.029Z,1019.6
2023-05-18T02:05:41.277Z,1019.7
2023-05-18T02:06:56.580Z,1019.6
2023-05-18T02:08:12.837Z,1019.7
2023-05-18T02:09:29.085Z,1019.6
2023-05-18T02:10:45.332Z,1019.6
2023-05-18T02:12:01.580Z,1019.6
2023-05-18T02:13:17.834Z,1019.6
2023-05-18T02:14:34.079Z,1019.6
2023-05-18T02:15:50.325Z,1019.6
2023-05-18T02:17:06.576Z,1019.6
2023-05-18T02:18:22.825Z,1019.6
2023-05-18T02:19:39.073Z,1019.6
2023-05-18T02:20:55.320Z,1019.7
2023-05-18T02:22:11.567Z,1019.6
2023-05-18T02:23:26.879Z,1019.7
2023-05-18T02:24:43.129Z,1019.6
2023-05-18T02:25:59.375Z,1019.6
2023-05-18T02:27:15.630Z,1019.7
2023-05-18T02:28:31.873Z,1019.7
2023-05-18T02:29:48.126Z,1019.6
2023-05-18T02:31:04.390Z,1019.8
2023-05-18T02:32:20.624Z,1019.6
2023-05-18T02:33:36.871Z,1019.8
2023-05-18T02:34:53.126Z,1019.7
2023-05-18T02:36:09.369Z,1019.7
2023-05-18T02:37:25.633Z,1019.7
2023-05-18T02:38:41.874Z,1019.6
2023-05-18T02:39:57.174Z,1019.7
2023-05-18T02:41:13.424Z,1019.7
2023-05-18T02:42:29.689Z,1019.7
2023-05-18T02:43:45.927Z,1019.6
2023-05-18T02:45:02.168Z,1019.7
2023-05-18T02:46:18.422Z,1019.7
2023-05-18T02:47:34.662Z,1019.7
2023-05-18T02:48:50.920Z,1019.7
2023-05-18T02:50:07.174Z,1019.6
2023-05-18T02:51:23.413Z,1019.7
2023-05-18T02:52:39.662Z,1019.7
2023-05-18T02:53:55.916Z,1019.7
2023-05-18T02:55:12.164Z,1019.7
2023-05-18T02:56:28.408Z,1019.6
2023-05-18T02:57:44.658Z,1019.7
2023-05-18T02:58:59.964Z,1019.7
2023-05-18T03:00:11.000Z,1019.7
2023-05-18T03:01:32.471Z,1019.7
2023-05-18T03:02:48.713Z,1019.7
2023-05-18T03:04:04.960Z,1019.8
2023-05-18T03:05:21.209Z,1019.7
2023-05-18T03:06:37.459Z,1019.8
2023-05-18T03:07:53.712Z,1019.8
2023-05-18T03:09:09.951Z,1019.7
2023-05-18T03:10:26.209Z,1019.8
2023-05-18T03:11:37.000Z,1019.8
2023-05-18T03:12:58.704Z,1019.7
2023-05-18T03:15:31.198Z,1019.7
2023-05-18T03:16:46.495Z,1019.8
2023-05-18T03:17:57.000Z,1019.8
2023-05-18T03:19:19.008Z,1019.8
2023-05-18T03:20:35.244Z,1019.7
2023-05-18T03:21:51.497Z,1019.8
2023-05-18T03:23:07.745Z,1019.8
2023-05-18T03:24:23.997Z,1019.8
2023-05-18T03:25:40.241Z,1019.8
2023-05-18T03:26:56.491Z,1019.7
2023-05-18T03:28:07.000Z,1019.8
2023-05-18T03:29:24.000Z,1019.7
2023-05-18T03:30:40.000Z,1019.7
2023-05-18T03:32:01.492Z,1019.7
2023-05-18T03:33:16.792Z,1019.7
2023-05-18T03:34:33.038Z,1019.8
2023-05-18T03:35:49.286Z,1019.8
2023-05-18T03:37:05.539Z,1019.8
2023-05-18T03:38:21.785Z,1019.8
2023-05-18T03:39:38.036Z,1019.8
2023-05-18T03:40:54.287Z,1019.7
2023-05-18T03:42:10.537Z,1019.7
2023-05-18T03:43:21.000Z,1019.7
2023-05-18T03:44:43.032Z,1019.7
2023-05-18T03:45:59.288Z,1019.7
2023-05-18T03:47:15.530Z,1019.7
2023-05-18T03:48:31.789Z,1019.8
2023-05-18T03:49:48.031Z,1019.7
2023-05-18T03:51:03.326Z,1019.7
2023-05-18T03:52:19.581Z,1019.7
2023-05-18T03:53:35.826Z,1019.8
2023-05-18T03:54:52.074Z,1019.7
2023-05-18T03:56:08.324Z,1019.8
2023-05-18T03:57:24.576Z,1019.8
2023-05-18T03:58:40.822Z,1019.7
2023-05-18T03:59:57.071Z,1019.8
2023-05-18T04:01:13.321Z,1019.8
2023-05-18T04:02:29.569Z,1019.8
2023-05-18T04:03:45.823Z,1019.7
2023-05-18T04:05:02.061Z,1019.8
2023-05-18T04:06:18.312Z,1019.8
2023-05-18T04:07:33.620Z,1019.7
2023-05-18T04:10:06.128Z,1019.8
2023-05-18T04:11:22.372Z,1019.8
2023-05-18T04:12:38.617Z,1019.8
2023-05-18T04:13:54.870Z,1019.8
2023-05-18T04:15:11.112Z,1019.8
2023-05-18T04:16:27.363Z,1019.8
2023-05-18T04:17:43.611Z,1019.8
2023-05-18T04:18:59.867Z,1019.8
2023-05-18T04:20:11.000Z,1019.8
2023-05-18T04:21:32.361Z,1019.8
2023-05-18T04:22:48.611Z,1019.8
2023-05-18T04:24:04.855Z,1019.8
2023-05-18T04:25:20.148Z,1019.9
2023-05-18T04:26:36.401Z,1019.9
2023-05-18T04:27:52.652Z,1019.8
2023-05-18T04:29:08.900Z,1019.9
2023-05-18T04:30:25.143Z,1019.9
2023-05-18T04:31:41.394Z,1019.9
2023-05-18T04:32:57.651Z,1019.9
2023-05-18T04:34:13.887Z,1019.9
2023-05-18T04:35:25.000Z,1019.9
2023-05-18T04:36:46.392Z,1019.9
2023-05-18T04:38:02.656Z,1020
2023-05-18T04:39:18.890Z,1019.9
2023-05-18T04:40:35.135Z,1019.8
2023-05-18T04:41:50.445Z,1019.9
2023-05-18T04:43:06.694Z,1019.9
2023-05-18T04:44:22.939Z,1020
2023-05-18T04:45:39.197Z,1019.9
2023-05-18T04:46:55.443Z,1019.9
2023-05-18T04:48:11.689Z,1020
2023-05-18T04:49:27.944Z,1020
2023-05-18T04:50:44.181Z,1020
2023-05-18T04:52:00.441Z,1020
2023-05-18T04:53:16.686Z,1020
2023-05-18T04:54:32.934Z,1020
2023-05-18T04:55:49.183Z,1020
2023-05-18T04:57:05.429Z,1020
2023-05-18T04:58:20.732Z,1020
2023-05-18T04:59:36.984Z,1020
2023-05-18T05:00:53.228Z,1020
2023-05-18T05:02:09.477Z,1020
2023-05-18T05:03:25.731Z,1020
2023-05-18T05:04:41.981Z,1020
2023-05-18T05:05:58.231Z,1020
2023-05-18T05:07:09.000Z,1020
2023-05-18T05:08:30.722Z,1020
2023-05-18T05:09:46.971Z,1020
2023-05-18T05:11:03.221Z,1020
2023-05-18T05:12:19.473Z,1020
2023-05-18T05:13:35.722Z,1020
2023-05-18T05:14:51.026Z,1020
2023-05-18T05:16:07.280Z,1020.1
2023-05-18T05:17:23.519Z,1020
2023-05-18T05:18:39.769Z,1020.1
2023-05-18T05:19:56.023Z,1020.1
2023-05-18T05:21:12.267Z,1020
2023-05-18T05:22:28.519Z,1020.1
2023-05-18T05:23:44.764Z,1020
2023-05-18T05:25:01.016Z,1020.1
2023-05-18T05:26:17.264Z,1020
2023-05-18T05:27:33.515Z,1020
2023-05-18T05:28:49.766Z,1020
2023-05-18T05:30:06.007Z,1020
2023-05-18T05:31:22.262Z,1020.1
2023-05-18T05:32:37.559Z,1020.1
2023-05-18T05:33:53.810Z,1020
2023-05-18T05:35:05.000Z,1020.1
2023-05-18T05:36:26.312Z,1020.1
2023-05-18T05:37:42.551Z,1020
2023-05-18T05:38:58.805Z,1020.1
2023-05-18T05:40:15.059Z,1020.1
2023-05-18T05:41:31.301Z,1020
2023-05-18T05:42:47.556Z,1020.1
2023-05-18T05:44:03.804Z,1020
2023-05-18T05:45:20.054Z,1020.1
2023-05-18T05:46:36.295Z,1020
2023-05-18T05:47:52.554Z,1020
2023-05-18T05:49:07.852Z,1020
2023-05-18T05:50:24.103Z,1020.1
2023-05-18T05:52:56.625Z,1020.1
2023-05-18T05:54:12.872Z,1020.1
2023-05-18T05:55:29.124Z,1020.1
2023-05-18T05:56:45.378Z,1020.1
2023-05-18T05:58:01.624Z,1020.1
2023-05-18T05:59:17.872Z,1020.2
2023-05-18T06:00:34.116Z,1020.2
2023-05-18T06:01:50.363Z,1020.2
2023-05-18T06:03:06.614Z,1020.1
2023-05-18T06:04:22.860Z,1020.1
2023-05-18T06:05:33.000Z,1020.2
2023-05-18T06:06:54.431Z,1020.1
2023-05-18T06:08:10.683Z,1020.2
2023-05-18T06:09:26.930Z,1020.2
2023-05-18T06:10:38.000Z,1020.1
2023-05-18T06:11:59.425Z,1020.1
2023-05-18T06:13:15.671Z,1020.1
2023-05-18T06:14:31.927Z,1020.1
2023-05-18T06:15:48.167Z,1020.2
2023-05-18T06:17:04.426Z,1020.2
2023-05-18T06:18:20.672Z,1020.1
2023-05-18T06:19:36.916Z,1020.2
2023-05-18T06:20:53.178Z,1020.2
2023-05-18T06:22:09.426Z,1020.2
2023-05-18T06:23:25.664Z,1020.2
2023-05-18T06:25:57.211Z,1020.2
2023-05-18T06:27:13.460Z,1020.3
2023-05-18T06:28:29.707Z,1020.3
2023-05-18T06:29:45.961Z,1020.3
2023-05-18T06:31:02.201Z,1020.2
2023-05-18T06:32:18.452Z,1020.3
2023-05-18T06:33:34.704Z,1020.3
2023-05-18T06:34:50.951Z,1020.3
2023-05-18T06:36:07.203Z,1020.3
2023-05-18T06:37:23.455Z,1020.3
2023-05-18T06:38:39.695Z,1020.3
2023-05-18T06:39:55.950Z,1020.3
2023-05-18T06:41:11.245Z,1020.3
2023-05-18T06:42:27.487Z,1020.4
2023-05-18T06:43:43.745Z,1020.4
2023-05-18T06:44:55.000Z,1020.4
2023-05-18T06:46:16.241Z,1020.4
2023-05-18T06:47:32.501Z,1020.4
2023-05-18T06:48:48.741Z,1020.4
2023-05-18T06:50:04.984Z,1020.4
2023-05-18T06:51:21.236Z,1020.4
2023-05-18T06:52:37.479Z,1020.3
2023-05-18T06:53:53.729Z,1020.4
2023-05-18T06:55:09.979Z,1020.4
2023-05-18T06:56:26.227Z,1020.4
2023-05-18T06:57:41.528Z,1020.4
2023-05-18T06:58:57.769Z,1020.4
2023-05-18T07:00:14.019Z,1020.3
2023-05-18T07:01:30.269Z,1020.3
2023-05-18T07:02:46.527Z,1020.3
2023-05-18T07:04:02.762Z,1020.3
2023-05-18T07:05:19.021Z,1020.4
2023-05-18T07:07:51.522Z,1020.3
2023-05-18T07:09:07.769Z,1020.3
2023-05-18T07:10:24.011Z,1020.3
2023-05-18T07:11:40.264Z,1020.3
2023-05-18T07:12:56.508Z,1020.3
2023-05-18T07:14:12.755Z,1020.3
2023-05-18T07:15:28.067Z,1020.3
2023-05-18T07:16:44.315Z,1020.3
2023-05-18T07:18:00.559Z,1020.3
2023-05-18T07:19:16.806Z,1020.3
2023-05-18T07:20:33.080Z,1020.3
2023-05-18T07:21:49.308Z,1020.3
2023-05-18T07:23:05.553Z,1020.3
2023-05-18T07:24:21.806Z,1020.3
2023-05-18T07:25:38.059Z,1020.2
2023-05-18T07:26:54.305Z,1020.3
2023-05-18T07:28:10.553Z,1020.2
2023-05-18T07:29:26.805Z,1020.2
2023-05-18T07:30:43.057Z,1020.2
2023-05-18T07:31:59.300Z,1020.2
2023-05-18T07:33:15.545Z,1020.2
2023-05-18T07:34:30.852Z,1020.2
2023-05-18T07:35:47.108Z,1020.2
2023-05-18T07:37:03.358Z,1020.2
2023-05-18T07:38:19.608Z,1020.2
2023-05-18T07:39:35.847Z,1020.2
2023-05-18T07:40:52.098Z,1020.2
2023-05-18T07:42:08.345Z,1020.1
2023-05-18T07:44:40.849Z,1020.2
2023-05-18T07:45:57.092Z,1020.1
2023-05-18T07:47:13.337Z,1020.1
2023-05-18T07:48:29.591Z,1020.1
2023-05-18T07:49:45.839Z,1020.1
2023-05-18T07:51:01.152Z,1020.1
2023-05-18T07:52:17.388Z,1020.1
2023-05-18T07:53:33.644Z,1020.1
2023-05-18T07:54:49.893Z,1020.1
2023-05-18T07:56:06.144Z,1020.1
2023-05-18T07:57:17.000Z,1020.1
2023-05-18T07:58:38.637Z,1020.1
2023-05-18T07:59:54.886Z,1020
2023-05-18T08:01:11.126Z,1020.1
2023-05-18T08:02:27.378Z,1020.1
2023-05-18T08:03:43.636Z,1020
2023-05-18T08:04:59.881Z,1020.1
2023-05-18T08:06:16.132Z,1020.1
2023-05-18T08:07:31.428Z,1020
2023-05-18T08:08:47.684Z,1020
2023-05-18T08:10:03.928Z,1020
2023-05-18T08:11:20.173Z,1020
2023-05-18T08:12:36.428Z,1019.9
2023-05-18T08:13:52.671Z,1020
2023-05-18T08:15:08.923Z,1019.9
2023-05-18T08:16:25.173Z,1019.9
2023-05-18T08:17:41.432Z,1020
2023-05-18T08:18:57.667Z,1019.9
2023-05-18T08:20:13.912Z,1019.9
2023-05-18T08:21:30.172Z,1019.9
2023-05-18T08:22:46.408Z,1019.9
2023-05-18T08:24:01.724Z,1019.8
2023-05-18T08:25:17.977Z,1019.8
2023-05-18T08:26:34.224Z,1019.8
2023-05-18T08:27:50.473Z,1019.8
2023-05-18T08:29:06.715Z,1019.8
2023-05-18T08:30:22.975Z,1019.8
2023-05-18T08:31:39.220Z,1019.8
2023-05-18T08:32:55.466Z,1019.8
2023-05-18T08:34:11.711Z,1019.8
2023-05-18T08:35:27.965Z,1019.7
2023-05-18T08:36:44.213Z,1019.8
2023-05-18T08:38:00.462Z,1019.8
2023-05-18T08:39:16.707Z,1019.8
2023-05-18T08:40:32.013Z,1019.8
2023-05-18T08:41:48.261Z,1019.7
2023-05-18T08:43:04.513Z,1019.8
2023-05-18T08:44:20.756Z,1019.8
2023-05-18T08:45:37.000Z,1019.7
2023-05-18T08:46:53.253Z,1019.7
2023-05-18T08:48:09.501Z,1019.7
2023-05-18T08:49:25.750Z,1019.7
2023-05-18T08:50:42.008Z,1019.7
2023-05-18T08:51:58.245Z,1019.7
2023-05-18T08:53:14.504Z,1019.7
2023-05-18T08:54:30.738Z,1019.8
2023-05-18T08:55:46.993Z,1019.7
2023-05-18T08:57:02.295Z,1019.8
2023-05-18T08:58:18.546Z,1019.7
2023-05-18T08:59:34.801Z,1019.8
2023-05-18T09:00:51.052Z,1019.8
2023-05-18T09:02:07.298Z,1019.8
2023-05-18T09:03:23.541Z,1019.7
2023-05-18T09:04:39.789Z,1019.7
2023-05-18T09:05:56.043Z,1019.7
2023-05-18T09:07:12.284Z,1019.7
2023-05-18T09:09:44.792Z,1019.7
2023-05-18T09:11:01.031Z,1019.6
2023-05-18T09:12:17.277Z,1019.6
2023-05-18T09:13:33.533Z,1019.6
2023-05-18T09:14:48.837Z,1019.6
2023-05-18T09:16:05.086Z,1019.6
2023-05-18T09:17:21.336Z,1019.6
2023-05-18T09:18:37.588Z,1019.6
2023-05-18T09:19:53.828Z,1019.6
2023-05-18T09:21:10.090Z,1019.6
2023-05-18T09:22:26.334Z,1019.5
2023-05-18T09:23:37.000Z,1019.5
2023-05-18T09:24:58.829Z,1019.5
2023-05-18T09:26:15.076Z,1019.5
2023-05-18T09:27:31.325Z,1019.4
2023-05-18T09:28:47.574Z,1019.4
2023-05-18T09:30:03.813Z,1019.5
2023-05-18T09:31:19.118Z,1019.4
2023-05-18T09:32:30.000Z,1019.4
2023-05-18T09:33:51.616Z,1019.4
2023-05-18T09:35:07.875Z,1019.4
2023-05-18T09:36:24.116Z,1019.3
2023-05-18T09:37:40.362Z,1019.3
2023-05-18T09:38:56.613Z,1019.3
2023-05-18T09:40:12.864Z,1019.4
2023-05-18T09:41:29.115Z,1019.4
2023-05-18T09:42:45.361Z,1019.4
2023-05-18T09:44:01.611Z,1019.3
2023-05-18T09:45:17.857Z,1019.4
2023-05-18T09:46:34.102Z,1019.3
2023-05-18T09:47:49.410Z,1019.3
2023-05-18T09:49:05.664Z,1019.3
2023-05-18T09:50:21.905Z,1019.3
2023-05-18T09:51:38.157Z,1019.3
2023-05-18T09:52:54.403Z,1019.3
2023-05-18T09:54:10.660Z,1019.3
2023-05-18T09:55:26.902Z,1019.3
2023-05-18T09:56:43.152Z,1019.3
2023-05-18T09:57:59.398Z,1019.3
2023-05-18T09:59:15.649Z,1019.3
2023-05-18T10:00:31.905Z,1019.3
2023-05-18T10:01:48.151Z,1019.3
2023-05-18T10:03:04.404Z,1019.3
2023-05-18T10:04:19.702Z,1019.3
2023-05-18T10:05:35.950Z,1019.2
2023-05-18T10:06:52.207Z,1019.2
2023-05-18T10:08:03.000Z,1019.2
2023-05-18T10:09:24.699Z,1019.1
2023-05-18T10:10:40.952Z,1019.1
2023-05-18T10:11:57.192Z,1019.1
2023-05-18T10:13:13.448Z,1019
2023-05-18T10:14:29.695Z,1019.1
2023-05-18T10:15:45.938Z,1019.1
2023-05-18T10:18:18.434Z,1019.1
2023-05-18T10:19:34.689Z,1019.1
2023-05-18T10:20:50.003Z,1019
2023-05-18T10:22:06.259Z,1019
2023-05-18T10:23:22.511Z,1018.9
2023-05-18T10:24:38.748Z,1019
2023-05-18T10:25:54.999Z,1018.9
2023-05-18T10:27:11.244Z,1018.9
2023-05-18T10:28:27.499Z,1018.9
2023-05-18T10:29:43.749Z,1018.9
2023-05-18T10:31:00.003Z,1018.9
2023-05-18T10:32:16.242Z,1018.9
2023-05-18T10:33:32.495Z,1018.9
2023-05-18T10:34:48.739Z,1018.9
2023-05-18T10:36:04.988Z,1018.8
2023-05-18T10:37:20.297Z,1018.8
2023-05-18T10:38:36.548Z,1018.8
2023-05-18T10:39:52.793Z,1018.8
2023-05-18T10:41:09.051Z,1018.8
2023-05-18T10:42:25.293Z,1018.8
2023-05-18T10:43:41.539Z,1018.8
2023-05-18T10:44:57.787Z,1018.8
2023-05-18T10:46:14.037Z,1018.8
2023-05-18T10:47:30.284Z,1018.7
2023-05-18T10:48:46.532Z,1018.8
2023-05-18T10:50:02.782Z,1018.7
2023-05-18T10:51:19.031Z,1018.7
2023-05-18T10:52:35.283Z,1018.7
2023-05-18T10:53:50.588Z,1018.6
2023-05-18T10:55:06.846Z,1018.7
2023-05-18T10:56:23.085Z,1018.7
2023-05-18T10:57:39.342Z,1018.7
2023-05-18T10:58:55.588Z,1018.7
2023-05-18T11:00:11.835Z,1018.8
2023-05-18T11:01:28.086Z,1018.8
2023-05-18T11:02:44.330Z,1018.7
2023-05-18T11:04:00.586Z,1018.7
2023-05-18T11:05:16.833Z,1018.7
2023-05-18T11:06:33.076Z,1018.7
2023-05-18T11:07:49.339Z,1018.7
2023-05-18T11:09:05.572Z,1018.7
2023-05-18T11:10:20.879Z,1018.6
2023-05-18T11:11:37.136Z,1018.6
2023-05-18T11:12:53.384Z,1018.6
2023-05-18T11:14:04.000Z,1018.6
2023-05-18T11:15:20.000Z,1018.5
2023-05-18T11:16:42.131Z,1018.6
2023-05-18T11:17:58.375Z,1018.5
2023-05-18T11:19:14.624Z,1018.6
2023-05-18T11:20:30.881Z,1018.6
2023-05-18T11:21:47.122Z,1018.6
2023-05-18T11:23:03.380Z,1018.5
2023-05-18T11:24:19.620Z,1018.5
2023-05-18T11:25:35.870Z,1018.5
2023-05-18T11:26:51.178Z,1018.6
2023-05-18T11:28:07.427Z,1018.6
2023-05-18T11:29:23.679Z,1018.5
2023-05-18T11:30:39.927Z,1018.6
2023-05-18T11:33:12.425Z,1018.6
2023-05-18T11:35:44.934Z,1018.5
2023-05-18T11:37:01.176Z,1018.5
2023-05-18T11:38:17.432Z,1018.5
2023-05-18T11:39:33.699Z,1018.4
2023-05-18T11:40:49.927Z,1018.5
2023-05-18T11:42:06.185Z,1018.4
2023-05-18T11:43:22.432Z,1018.4
2023-05-18T11:44:37.738Z,1018.4
2023-05-18T11:45:54.000Z,1018.4
2023-05-18T11:47:10.234Z,1018.4
2023-05-18T11:48:26.490Z,1018.3
2023-05-18T11:49:42.743Z,1018.3
2023-05-18T11:52:15.244Z,1018.3
2023-05-18T11:53:30.572Z,1018.2
2023-05-18T11:54:40.000Z,1018.2
2023-05-18T11:56:02.124Z,1018.2
2023-05-18T11:57:18.375Z,1018.1
2023-05-18T11:58:34.628Z,1018.1
2023-05-18T11:59:50.881Z,1018.2
2023-05-18T12:01:07.138Z,1018.2
2023-05-18T12:02:23.381Z,1018.2
2023-05-18T12:03:39.625Z,1018.2
2023-05-18T12:04:55.880Z,1018.1
2023-05-18T12:06:12.131Z,1018.1
2023-05-18T12:07:27.467Z,1018.2
2023-05-18T12:08:42.770Z,1018.1
2023-05-18T12:09:59.021Z,1018.1
2023-05-18T12:12:31.524Z,1018
2023-05-18T12:13:47.768Z,1018
2023-05-18T12:14:58.000Z,1018
2023-05-18T12:16:20.273Z,1018.1
2023-05-18T12:17:36.517Z,1018
2023-05-18T12:18:52.766Z,1018
2023-05-18T12:20:09.023Z,1018
2023-05-18T12:21:25.283Z,1018
2023-05-18T12:22:41.522Z,1018
2023-05-18T12:23:57.769Z,1017.9
2023-05-18T12:25:13.067Z,1017.9
2023-05-18T12:26:29.314Z,1017.9
2023-05-18T12:27:45.566Z,1017.9
2023-05-18T12:28:56.000Z,1017.9
2023-05-18T12:30:18.074Z,1017.9
2023-05-18T12:31:34.321Z,1017.8
2023-05-18T12:32:50.566Z,1017.8
2023-05-18T12:34:06.822Z,1017.9
2023-05-18T12:35:23.072Z,1017.9
2023-05-18T12:36:39.337Z,1018
2023-05-18T12:37:55.572Z,1017.9
2023-05-18T12:39:11.824Z,1017.9
2023-05-18T12:40:28.079Z,1017.8
2023-05-18T12:41:38.000Z,1017.9
2023-05-18T12:42:59.623Z,1017.8
2023-05-18T12:44:15.876Z,1017.7
2023-05-18T12:45:27.000Z,1017.8
2023-05-18T12:46:48.378Z,1017.8
2023-05-18T12:47:59.000Z,1017.8
2023-05-18T12:49:20.880Z,1017.8
2023-05-18T12:50:37.125Z,1017.8
2023-05-18T12:51:53.379Z,1017.8
2023-05-18T12:53:09.622Z,1017.8
2023-05-18T12:54:25.876Z,1017.8
2023-05-18T12:55:42.122Z,1017.9
2023-05-18T12:56:58.370Z,1017.7
2023-05-18T12:58:13.686Z,1017.8
2023-05-18T12:59:29.935Z,1017.7
2023-05-18T13:00:46.182Z,1017.7
2023-05-18T13:02:02.434Z,1017.7
2023-05-18T13:03:18.678Z,1017.7
2023-05-18T13:04:34.937Z,1017.7
2023-05-18T13:05:51.186Z,1017.6
2023-05-18T13:07:07.430Z,1017.6
2023-05-18T13:08:23.681Z,1017.8
2023-05-18T13:09:39.932Z,1017.6
2023-05-18T13:10:56.178Z,1017.6
2023-05-18T13:12:12.429Z,1017.6
2023-05-18T13:13:28.683Z,1017.6
2023-05-18T13:14:43.983Z,1017.6
2023-05-18T13:16:00.235Z,1017.6
2023-05-18T13:17:16.490Z,1017.6
2023-05-18T13:18:32.738Z,1017.6
2023-05-18T13:19:48.985Z,1017.6
2023-05-18T13:21:05.234Z,1017.6
2023-05-18T13:22:21.488Z,1017.6
2023-05-18T13:23:37.745Z,1017.5
2023-05-18T13:24:53.980Z,1017.5
2023-05-18T13:26:05.000Z,1017.5
2023-05-18T13:27:26.486Z,1017.5
2023-05-18T13:28:42.735Z,1017.4
2023-05-18T13:29:58.986Z,1017.5
2023-05-18T13:31:14.297Z,1017.5
2023-05-18T13:32:30.550Z,1017.4
2023-05-18T13:33:46.795Z,1017.4
2023-05-18T13:35:03.045Z,1017.4
2023-05-18T13:36:19.296Z,1017.4
2023-05-18T13:37:35.540Z,1017.4
2023-05-18T13:38:51.789Z,1017.3
2023-05-18T13:40:08.049Z,1017.3
2023-05-18T13:41:24.286Z,1017.3
2023-05-18T13:42:35.000Z,1017.3
2023-05-18T13:43:56.792Z,1017.3
2023-05-18T13:46:29.295Z,1017.4
2023-05-18T13:47:44.595Z,1017.3
2023-05-18T13:49:00.855Z,1017.3
2023-05-18T13:50:11.000Z,1017.3
2023-05-18T13:51:33.346Z,1017.3
2023-05-18T13:52:49.596Z,1017.3
2023-05-18T13:54:05.852Z,1017.2
2023-05-18T13:55:22.100Z,1017.2
2023-05-18T13:56:38.349Z,1017.3
2023-05-18T13:57:54.594Z,1017.2
2023-05-18T13:59:10.847Z,1017.2
2023-05-18T14:00:27.095Z,1017.1
2023-05-18T14:01:43.343Z,1017.1
2023-05-18T14:02:59.590Z,1017.1
2023-05-18T14:04:09.000Z,1017
2023-05-18T14:05:31.157Z,1017.1
2023-05-18T14:06:47.398Z,1017.1
2023-05-18T14:08:03.650Z,1017.1
2023-05-18T14:09:19.902Z,1017.1
2023-05-18T14:10:36.148Z,1017
2023-05-18T14:11:52.405Z,1017.1
2023-05-18T14:13:08.654Z,1017.1
2023-05-18T14:14:24.910Z,1017
2023-05-18T14:15:41.143Z,1017
2023-05-18T14:16:57.400Z,1016.9
2023-05-18T14:18:13.645Z,1017
2023-05-18T14:19:29.903Z,1016.9
2023-05-18T14:20:45.203Z,1016.9
2023-05-18T14:22:01.451Z,1017
2023-05-18T14:23:12.000Z,1016.9
2023-05-18T14:24:33.951Z,1017
2023-05-18T14:25:50.201Z,1016.9
2023-05-18T14:27:06.448Z,1017
2023-05-18T14:28:22.708Z,1016.9
2023-05-18T14:29:38.952Z,1016.9
2023-05-18T14:30:55.194Z,1016.9
2023-05-18T14:32:11.451Z,1016.8
2023-05-18T14:33:27.697Z,1016.8
2023-05-18T14:34:43.953Z,1016.8
2023-05-18T14:35:59.265Z,1016.8
2023-05-18T14:37:15.519Z,1016.8
2023-05-18T14:38:31.758Z,1016.8
2023-05-18T14:39:48.019Z,1016.7
2023-05-18T14:41:04.261Z,1016.7
2023-05-18T14:42:15.000Z,1016.7
2023-05-18T14:43:36.761Z,1016.8
2023-05-18T14:44:53.013Z,1016.8
2023-05-18T14:46:09.261Z,1016.8
2023-05-18T14:47:25.517Z,1016.8
2023-05-18T14:48:41.762Z,1016.7
2023-05-18T14:49:58.010Z,1016.7
2023-05-18T14:51:14.259Z,1016.7
2023-05-18T14:52:30.518Z,1016.7
2023-05-18T14:53:46.763Z,1016.6
2023-05-18T14:55:02.059Z,1016.7
2023-05-18T14:56:18.309Z,1016.7
2023-05-18T14:57:34.570Z,1016.6
2023-05-18T14:58:50.814Z,1016.6
2023-05-18T15:00:07.069Z,1016.7
2023-05-18T15:02:39.563Z,1016.6
2023-05-18T15:03:55.816Z,1016.7
2023-05-18T15:05:12.052Z,1016.6
2023-05-18T15:06:28.311Z,1016.6
2023-05-18T15:07:44.558Z,1016.6
2023-05-18T15:09:00.811Z,1016.7
2023-05-18T15:10:17.060Z,1016.6
2023-05-18T15:11:32.363Z,1016.6
2023-05-18T15:12:48.614Z,1016.6
2023-05-18T15:14:04.863Z,1016.6
2023-05-18T15:15:21.118Z,1016.6
2023-05-18T15:16:37.357Z,1016.6
2023-05-18T15:17:53.603Z,1016.6
2023-05-18T15:19:04.000Z,1016.5
2023-05-18T15:20:20.000Z,1016.6
2023-05-18T15:21:42.361Z,1016.6
2023-05-18T15:22:58.609Z,1016.6
2023-05-18T15:24:14.857Z,1016.5
2023-05-18T15:25:31.113Z,1016.5
2023-05-18T15:26:47.348Z,1016.5
2023-05-18T15:28:02.668Z,1016.5
2023-05-18T15:29:18.908Z,1016.5
2023-05-18T15:30:35.163Z,1016.5
2023-05-18T15:31:51.410Z,1016.6
2023-05-18T15:33:07.659Z,1016.6
2023-05-18T15:34:23.904Z,1016.5
2023-05-18T15:35:40.151Z,1016.5
2023-05-18T15:36:56.405Z,1016.6
2023-05-18T15:38:12.658Z,1016.6
2023-05-18T15:39:23.000Z,1016.5
2023-05-18T15:40:45.153Z,1016.5
2023-05-18T15:42:01.406Z,1016.5
2023-05-18T15:43:17.653Z,1016.5
2023-05-18T15:44:32.955Z,1016.5
2023-05-18T15:45:49.203Z,1016.4
2023-05-18T15:47:05.455Z,1016.5
2023-05-18T15:48:21.705Z,1016.5
2023-05-18T15:49:37.949Z,1016.5
2023-05-18T15:50:54.209Z,1016.5
2023-05-18T15:52:10.458Z,1016.4
2023-05-18T15:53:26.705Z,1016.4
2023-05-18T15:54:42.950Z,1016.4
2023-05-18T15:55:59.205Z,1016.4
2023-05-18T15:57:15.454Z,1016.4
2023-05-18T15:58:31.694Z,1016.4
2023-05-18T15:59:42.000Z,1016.5
2023-05-18T16:01:03.257Z,1016.5
2023-05-18T16:02:19.523Z,1016.5
2023-05-18T16:03:35.750Z,1016.4
2023-05-18T16:04:52.009Z,1016.4
2023-05-18T16:06:08.256Z,1016.3
2023-05-18T16:07:24.504Z,1016.4
2023-05-18T16:08:40.754Z,1016.3
2023-05-18T16:09:57.001Z,1016.4
2023-05-18T16:11:13.248Z,1016.4
2023-05-18T16:12:29.506Z,1016.4